createdAt,value
2022-11-10T00:03:02.711Z,10.2
2022-11-10T00:08:08.158Z,10.2
2022-11-10T00:13:15.617Z,10.2
2022-11-10T00:18:31.984Z,10.1
2022-11-10T00:23:38.355Z,10.1
2022-11-10T00:28:48.792Z,10.1
2022-11-10T00:33:55.160Z,10.0
2022-11-10T00:38:57.611Z,10.0
2022-11-10T00:44:24.081Z,10.0
2022-11-10T00:49:10.497Z,10.0
2022-11-10T00:54:16.877Z,9.9
2022-11-10T00:59:13.242Z,9.9
2022-11-10T01:04:29.675Z,9.9
2022-11-10T01:09:39.100Z,9.9
2022-11-10T01:31:33.812Z,9.7
2022-11-10T01:35:22.015Z,9.7
2022-11-10T01:40:13.523Z,9.7
2022-11-10T01:45:54.915Z,9.6
2022-11-10T01:51:02.360Z,9.6
2022-11-10T01:56:32.787Z,9.6
2022-11-10T02:01:19.188Z,9.6
2022-11-10T02:06:25.535Z,9.5
2022-11-10T02:12:10.977Z,9.5
2022-11-10T02:16:34.354Z,9.5
2022-11-10T02:21:44.357Z,9.5
2022-11-10T02:26:50.718Z,9.4
2022-11-10T02:31:57.302Z,9.4
2022-11-10T02:37:03.724Z,9.4
2022-11-10T02:42:10.093Z,9.3
2022-11-10T02:47:16.459Z,9.3
2022-11-10T02:52:22.862Z,9.3
2022-11-10T02:57:33.232Z,9.2
2022-11-10T03:02:35.695Z,9.2
2022-11-10T03:07:42.108Z,9.2
2022-11-10T03:13:12.513Z,9.2
2022-11-10T03:19:06.979Z,9.2
2022-11-10T03:23:01.251Z,9.2
2022-11-10T03:27:57.682Z,9.2
2022-11-10T03:33:14.094Z,9.2
2022-11-10T03:38:48.566Z,9.2
2022-11-10T03:43:26.961Z,9.2
2022-11-10T03:49:33.459Z,9.2
2022-11-10T03:53:59.805Z,9.2
2022-11-10T03:58:36.249Z,9.2
2022-11-10T04:03:52.719Z,9.2
2022-11-10T04:09:19.176Z,9.2
2022-11-10T04:14:19.521Z,9.2
2022-11-10T04:19:02.042Z,9.3
2022-11-10T04:24:18.436Z,9.2
2022-11-10T04:29:14.848Z,9.2
2022-11-10T04:34:55.264Z,9.3
2022-11-10T04:39:37.608Z,9.3
2022-11-10T04:44:48.073Z,9.3
2022-11-10T04:49:54.498Z,9.3
2022-11-10T04:56:08.975Z,9.3
2022-11-10T04:59:53.225Z,9.3
2022-11-10T05:05:09.748Z,9.3
2022-11-10T05:10:16.342Z,9.3
2022-11-10T05:15:44.371Z,9.3
2022-11-10T05:20:30.713Z,9.4
2022-11-10T05:26:01.210Z,9.4
2022-11-10T05:30:43.598Z,9.4
2022-11-10T05:35:50.027Z,9.4
2022-11-10T05:40:56.401Z,9.4
2022-11-10T05:46:02.785Z,9.4
2022-11-10T05:50:59.159Z,9.4
2022-11-10T05:56:14.535Z,9.5
2022-11-10T06:01:49.539Z,9.5
2022-11-10T06:06:31.943Z,9.5
2022-11-10T06:11:42.254Z,9.5
2022-11-10T06:16:48.625Z,9.5
2022-11-10T06:21:58.915Z,9.5
2022-11-10T06:26:58.965Z,9.5
2022-11-10T06:33:19.275Z,9.5
2022-11-10T06:37:13.324Z,9.5
2022-11-10T06:42:23.701Z,9.4
2022-11-10T06:47:16.054Z,9.5
2022-11-10T06:52:36.045Z,9.4
2022-11-10T06:57:42.419Z,9.4
2022-11-10T07:02:52.790Z,9.4
2022-11-10T07:07:59.199Z,9.4
2022-11-10T07:13:03.098Z,9.4
2022-11-10T07:18:09.462Z,9.3
2022-11-10T07:23:17.447Z,9.3
2022-11-10T07:28:49.386Z,9.3
2022-11-10T07:33:31.719Z,9.4
2022-11-10T07:38:28.114Z,9.4
2022-11-10T07:43:48.531Z,9.4
2022-11-10T07:49:14.909Z,9.4
2022-11-10T07:53:58.851Z,9.6
2022-11-10T07:59:09.204Z,9.8
2022-11-10T08:04:11.578Z,10.2
2022-11-10T08:09:18.160Z,10.7
2022-11-10T08:14:58.602Z,11.5
2022-11-10T08:30:19.001Z,11.7
2022-11-10T08:35:15.361Z,11.7
2022-11-10T08:40:21.858Z,11.6
2022-11-10T08:45:38.244Z,11.5
2022-11-10T08:50:34.603Z,11.4
2022-11-10T08:55:41.014Z,11.3
2022-11-10T09:00:57.396Z,11.4
2022-11-10T09:11:14.202Z,11.2
2022-11-10T09:16:16.606Z,11.2
2022-11-10T09:21:23.037Z,11.2
2022-11-10T09:26:29.569Z,11.3
2022-11-10T09:32:00.052Z,11.2
2022-11-10T09:36:42.397Z,11.3
2022-11-10T09:41:52.832Z,11.3
2022-11-10T09:47:50.516Z,11.3
2022-11-10T09:52:00.648Z,11.4
2022-11-10T09:57:08.049Z,11.4
2022-11-10T10:02:38.462Z,11.5
2022-11-10T10:07:20.842Z,11.6
2022-11-10T10:12:27.194Z,11.7
2022-11-10T10:22:29.907Z,11.9
2022-11-10T10:27:46.337Z,12.0
2022-11-10T10:32:52.696Z,12.2
2022-11-10T10:37:59.081Z,12.3
2022-11-10T10:43:05.487Z,12.6
2022-11-10T10:48:31.947Z,13.0
2022-11-10T10:53:18.388Z,13.7
2022-11-10T10:58:25.284Z,14.4
2022-11-10T11:04:43.303Z,15.1
2022-11-10T11:08:27.529Z,15.7
2022-11-10T11:13:57.966Z,16.4
2022-11-10T11:19:13.373Z,17.1
2022-11-10T11:24:34.781Z,18.3
2022-11-10T11:35:04.570Z,18.9
2022-11-10T11:39:40.901Z,19.4
2022-11-10T11:44:57.304Z,19.6
2022-11-10T11:50:07.729Z,19.8
2022-11-10T11:55:10.081Z,20.0
2022-11-10T12:00:06.460Z,20.1
2022-11-10T12:05:22.872Z,20.3
2022-11-10T12:10:29.226Z,20.4
2022-11-10T12:15:35.747Z,20.6
2022-11-10T12:20:32.152Z,20.8
2022-11-10T12:36:00.302Z,21.2
2022-11-10T12:41:07.684Z,21.2
2022-11-10T12:46:18.078Z,21.2
2022-11-10T12:51:20.544Z,21.2
2022-11-10T12:56:25.841Z,21.1
2022-11-10T13:02:45.367Z,21.0
2022-11-10T13:06:43.780Z,20.9
2022-11-10T13:12:10.138Z,20.9
2022-11-10T13:16:52.498Z,20.7
2022-11-10T13:21:48.967Z,20.6
2022-11-10T13:26:54.425Z,20.5
2022-11-10T13:32:15.843Z,20.4
2022-11-10T13:42:24.721Z,20.1
2022-11-10T13:47:31.201Z,20.0
2022-11-10T13:52:37.582Z,19.9
2022-11-10T13:57:47.988Z,19.9
2022-11-10T14:02:50.439Z,19.8
2022-11-10T14:08:00.740Z,19.8
2022-11-10T14:13:07.130Z,19.7
2022-11-10T14:18:09.494Z,19.5
2022-11-10T14:23:19.885Z,19.3
2022-11-10T14:28:22.757Z,19.1
2022-11-10T14:33:28.664Z,18.9
2022-11-10T14:38:39.055Z,18.6
2022-11-10T14:43:43.123Z,18.3
2022-11-10T14:48:49.413Z,18.1
2022-11-10T14:53:55.798Z,17.8
2022-11-10T14:58:52.271Z,17.6
2022-11-10T15:04:09.115Z,17.4
2022-11-10T15:09:16.533Z,17.2
2022-11-10T15:14:24.599Z,16.9
2022-11-10T15:19:30.857Z,16.7
2022-11-10T15:24:37.237Z,16.5
2022-11-10T15:29:47.753Z,16.3
2022-11-10T15:34:55.584Z,16.1
2022-11-10T15:40:01.972Z,15.9
2022-11-10T15:45:12.047Z,15.7
2022-11-10T15:50:14.276Z,15.6
2022-11-10T15:55:20.664Z,15.3
2022-11-10T16:00:27.247Z,15.2
2022-11-10T16:05:23.606Z,15.0
2022-11-10T16:10:40.132Z,14.8
2022-11-10T16:15:48.190Z,14.7
2022-11-10T16:26:04.958Z,14.4
2022-11-10T16:31:07.462Z,14.2
2022-11-10T16:36:12.724Z,14.1
2022-11-10T16:41:20.181Z,13.9
2022-11-10T16:46:30.681Z,13.8
2022-11-10T16:51:36.930Z,13.6
2022-11-10T16:56:43.306Z,13.5
2022-11-10T17:01:47.520Z,13.4
2022-11-10T17:06:53.680Z,13.2
2022-11-10T17:12:01.587Z,13.1
2022-11-10T17:17:08.310Z,13.0
2022-11-10T17:22:18.562Z,12.9
2022-11-10T17:27:25.486Z,12.8
2022-11-10T17:32:57.988Z,12.7
2022-11-10T17:37:56.321Z,12.6
2022-11-10T17:45:32.088Z,12.5
2022-11-10T17:49:05.963Z,12.4
2022-11-10T17:53:00.162Z,12.3
2022-11-10T17:58:06.618Z,12.3
2022-11-10T18:03:13.023Z,12.2
2022-11-10T18:08:43.126Z,12.1
2022-11-10T18:13:32.921Z,12.0
2022-11-10T18:18:42.431Z,12.0
2022-11-10T18:23:49.120Z,11.9
2022-11-10T18:28:54.288Z,11.9
2022-11-10T18:34:03.241Z,11.8
2022-11-10T18:39:09.732Z,11.8
2022-11-10T18:44:16.018Z,11.7
2022-11-10T18:49:12.393Z,11.7
2022-11-10T18:54:34.501Z,11.6
2022-11-10T18:59:36.835Z,11.6
2022-11-10T19:04:49.682Z,11.6
2022-11-10T19:09:57.377Z,11.5
2022-11-10T19:15:00.329Z,11.5
2022-11-10T19:20:10.727Z,11.5
2022-11-10T19:25:13.342Z,11.4
2022-11-10T19:30:19.810Z,11.4
2022-11-10T19:35:27.247Z,11.4
2022-11-10T19:40:33.792Z,11.4
2022-11-10T19:45:44.325Z,11.3
2022-11-10T19:50:50.696Z,11.3
2022-11-10T19:55:53.193Z,11.3
2022-11-10T20:06:08.713Z,11.2
2022-11-10T20:11:16.302Z,11.2
2022-11-10T20:16:22.588Z,11.2
2022-11-10T20:21:49.031Z,11.2
2022-11-10T20:26:35.597Z,11.2
2022-11-10T20:31:40.909Z,11.2
2022-11-10T20:36:48.344Z,11.1
2022-11-10T20:43:07.044Z,11.1
2022-11-10T20:47:01.465Z,11.1
2022-11-10T20:52:11.599Z,11.1
2022-11-10T20:57:22.019Z,11.0
2022-11-10T21:02:24.484Z,11.0
2022-11-10T21:07:29.927Z,11.0
2022-11-10T21:12:38.964Z,11.0
2022-11-10T21:17:47.076Z,11.0
2022-11-10T21:23:23.628Z,10.9
2022-11-10T21:28:05.507Z,10.9
2022-11-10T21:33:12.174Z,10.9
2022-11-10T21:38:14.558Z,10.8
2022-11-10T21:43:21.407Z,10.8
2022-11-10T21:48:31.456Z,10.8
2022-11-10T21:59:45.962Z,10.8
2022-11-10T22:09:54.805Z,10.7
2022-11-10T22:14:37.746Z,10.7
2022-11-10T22:19:44.443Z,10.6
2022-11-10T22:24:50.930Z,10.6
2022-11-10T22:30:01.325Z,10.6
2022-11-10T22:35:07.822Z,10.5
2022-11-10T22:40:10.247Z,10.5
2022-11-10T22:45:16.632Z,10.5
2022-11-10T22:50:23.173Z,10.4
2022-11-10T22:56:06.516Z,10.4
2022-11-10T23:01:15.109Z,10.4
2022-11-10T23:06:21.583Z,10.4
2022-11-10T23:11:27.931Z,10.3
2022-11-10T23:16:38.326Z,10.3
2022-11-10T23:21:34.365Z,10.3
2022-11-10T23:31:57.027Z,10.2
2022-11-10T23:37:07.546Z,10.2
2022-11-10T23:42:09.845Z,10.1
2022-11-10T23:47:19.358Z,10.1
2022-11-10T23:52:29.029Z,10.0
2022-11-10T23:57:25.316Z,10.0
